Terminal Aerodrome Forecast
Issued by NWS

Home | Current Version | Previous Version | Text Only | Print | Product List | Glossary On
Versions: 1 2 3 4 5 6 7 8 9 10 11 12
000
FTUS45 KTFX 201700 CCA
TAFBZN
TAF COR
KBZN 201733Z 2018/2118 13004KT P6SM SCT090 BKN150
     FM202200 18005KT P6SM SCT050 BKN090
     FM210800 20007KT P6SM -SHSN SCT020 OVC040
      TEMPO 2109/2113 2SM -SN BR BKN020
     FM211300 22011KT 2SM -SN SCT010 OVC020=

USA.gov is the U.S. government's official web portal to all federal, state and local government web resources and services.